Details for Norwegian Air International at GCTS




Go Back


Latest METAR
Local Time

GCTS 240800Z 07003KT 020V160 9999 FEW033 19/12 Q1019 NOSIG

24/05/2018, 09:08:42

Description
Results
Norwegian Air International Logo
Number of Pilots based at GCTS
0 Pilots Based here
Number of Norwegian Air International Flights Departed from GCTS
0 Flights Departed
Number of Norwegian Air International Flights Arrived at GCTS
1 Flights Arrived
Number of Norwegian Air International Schedules Departing from GCTS
21 Schedules
Number of Norwegian Air International Schedules Arriving at GCTS
20 Schedules
Number of Norwegian Air International Schedules Departing from GCTS availible today
3 Schedules Today
Number of Norwegian Air International Schedules Arriving at GCTS availible today
3 Schedules Today
Average Landing Rate at GCTS
-219 fpm
Norwegian Air International Average Landing Rate at GCTS
-116 fpm
Total Fuel Purchased at GCTS by Norwegian Air International
0.00 kgs / 0.00 lbs

Pilots Based at GCTS


Pilot ID
Pilot Name
Pilot Rank
No. of Flights
No. of Flying Hours
There are no pilots assigned to this hub!   Will you be the first?
Content